Santa Branca, Brazil
Current Conditions -  °F | °C
As of 7:00 AM on Monday 20 Oct 2014 (Local Time) from SBSJ Reporting Station
Overcast Overcast  
Wind Chill: 72°   Ceiling: 10000
Heat Index: 72°   Visibility: 5mi
Dew Point: 64°   Wind: 3mph
Humidity: 78%   Direction: 30°NNE
Pressure: 30"   Gusts: NA
Location:  23.4°S, 45.89°W
Report Text: SBSJ 201000Z 03003KT 8000 FEW015 OVC100 22/18 Q1016
Loading
Personal Weather Stations






























Interactive Weather Map
Tropical Storm Tracking
New forecast layout! Learn more

10-Day Weather Forecast

Advertisements
Track Severe Weather on mobile